createdAt,value
2024-02-28T00:00:11.999Z,97511.75
2024-02-28T00:02:39.786Z,97518.75
2024-02-28T00:05:07.513Z,97516.34
2024-02-28T00:07:35.890Z,97512.56
2024-02-28T00:10:03.807Z,97520.97
2024-02-28T00:12:31.430Z,97527.16
2024-02-28T00:14:58.774Z,97524.78
2024-02-28T00:17:27.828Z,97524.78
2024-02-28T00:19:55.467Z,97530.97
2024-02-28T00:22:22.898Z,97523.97
2024-02-28T00:24:50.687Z,97524.47
2024-02-28T00:27:18.460Z,97528.78
2024-02-28T00:29:45.961Z,97528.78
2024-02-28T00:32:13.577Z,97525.81
2024-02-28T00:34:42.388Z,97519.56
2024-02-28T00:37:09.946Z,97516.88
2024-02-28T00:39:37.416Z,97519.56
2024-02-28T00:42:04.997Z,97525.81
2024-02-28T00:44:32.606Z,97517.69
2024-02-28T00:47:00.194Z,97516.88
2024-02-28T00:49:27.752Z,97519.56
2024-02-28T00:51:57.345Z,97528.78
2024-02-28T00:54:26.414Z,97517.97
2024-02-28T00:56:54.071Z,97529.56
2024-02-28T00:59:21.496Z,97521.75
2024-02-28T01:01:49.788Z,97527.16
2024-02-28T01:04:17.324Z,97523.97
2024-02-28T01:06:44.798Z,97525.56
2024-02-28T01:09:13.789Z,97530.97
2024-02-28T01:11:41.446Z,97529.38
2024-02-28T01:14:09.078Z,97529.38
2024-02-28T01:16:36.669Z,97520.72
2024-02-28T01:19:04.424Z,97523.16
2024-02-28T01:21:32.054Z,97521.56
2024-02-28T01:23:59.457Z,97518.84
2024-02-28T01:26:28.544Z,97520.72
2024-02-28T01:28:56.117Z,97517.25
2024-02-28T01:31:23.828Z,97522.94
2024-02-28T01:33:51.625Z,97522.94
2024-02-28T01:36:19.298Z,97522.94
2024-02-28T01:38:46.830Z,97527.25
2024-02-28T01:41:14.360Z,97535.66
2024-02-28T01:43:44.085Z,97541.88
2024-02-28T01:46:23.185Z,97537.56
2024-02-28T01:48:51.101Z,97537.56
2024-02-28T01:51:19.092Z,97542.16
2024-02-28T01:53:47.122Z,97545.16
2024-02-28T01:56:17.299Z,97547.84
2024-02-28T01:58:48.316Z,97554.06
2024-02-28T02:01:16.923Z,97560.56
2024-02-28T02:03:51.157Z,97563.56
2024-02-28T02:06:19.426Z,97565.19
2024-02-28T02:08:47.626Z,97571.66
2024-02-28T02:11:16.112Z,97565.75
2024-02-28T02:13:51.005Z,97575.47
2024-02-28T02:16:19.938Z,97577.38
2024-02-28T02:18:48.705Z,97575.75
2024-02-28T02:21:19.591Z,97587.38
2024-02-28T02:23:48.589Z,97591.19
2024-02-28T02:26:16.213Z,97589.81
2024-02-28T02:28:43.596Z,97589.50
2024-02-28T02:31:12.182Z,97591.13
2024-02-28T02:33:39.815Z,97606.25
2024-02-28T02:36:07.881Z,97606.25
2024-02-28T02:38:35.576Z,97606.25
2024-02-28T02:41:04.802Z,97610.03
2024-02-28T02:43:32.387Z,97608.44
2024-02-28T02:45:59.875Z,97612.75
2024-02-28T02:48:27.605Z,97616.28
2024-02-28T02:50:55.002Z,97614.34
2024-02-28T02:53:22.559Z,97611.94
2024-02-28T02:55:49.932Z,97619.25
2024-02-28T02:58:18.934Z,97621.97
2024-02-28T03:00:46.709Z,97627.38
2024-02-28T03:03:14.343Z,97618.44
2024-02-28T03:05:42.064Z,97626.56
2024-02-28T03:08:09.609Z,97625.75
2024-02-28T03:10:37.046Z,97628.44
2024-02-28T03:13:06.779Z,97624.94
2024-02-28T03:15:35.910Z,97631.47
2024-02-28T03:18:04.030Z,97633.06
2024-02-28T03:20:31.620Z,97634.16
2024-02-28T03:22:59.233Z,97640.66
2024-02-28T03:25:26.824Z,97641.47
2024-02-28T03:27:54.439Z,97645.25
2024-02-28T03:30:21.861Z,97653.38
2024-02-28T03:32:50.966Z,97661.50
2024-02-28T03:35:18.596Z,97657.16
2024-02-28T03:37:46.258Z,97661.50
2024-02-28T03:40:13.744Z,97665.25
2024-02-28T03:42:41.549Z,97659.84
2024-02-28T03:45:09.655Z,97662.06
2024-02-28T03:47:37.280Z,97674.47
2024-02-28T03:50:06.622Z,97667.47
2024-02-28T03:52:34.267Z,97663.16
2024-02-28T03:55:01.784Z,97672.88
2024-02-28T03:57:29.708Z,97671.28
2024-02-28T03:59:57.369Z,97671.28
2024-02-28T04:02:24.783Z,97672.34
2024-02-28T04:04:52.341Z,97672.34
2024-02-28T04:07:21.289Z,97663.72
2024-02-28T04:09:49.044Z,97671.84
2024-02-28T04:12:16.770Z,97670.19
2024-02-28T04:14:44.401Z,97669.91
2024-02-28T04:17:11.917Z,97667.50
2024-02-28T04:19:40.617Z,97669.41
2024-02-28T04:22:08.452Z,97665.63
2024-02-28T04:24:37.461Z,97669.91
2024-02-28T04:27:06.848Z,97668.03
2024-02-28T04:29:34.449Z,97676.97
2024-02-28T04:32:02.029Z,97678.28
2024-02-28T04:34:29.443Z,97673.16
2024-02-28T04:36:57.091Z,97681.25
2024-02-28T04:39:24.796Z,97682.09
2024-02-28T04:41:53.800Z,97684.78
2024-02-28T04:44:21.405Z,97690.19
2024-02-28T04:46:48.964Z,97694.50
2024-02-28T04:49:16.603Z,97695.59
2024-02-28T04:51:44.333Z,97698.31
2024-02-28T04:54:11.953Z,97698.31
2024-02-28T04:56:40.689Z,97701.78
2024-02-28T04:59:09.722Z,97697.78
2024-02-28T05:01:40.345Z,97699.38
2024-02-28T05:04:08.465Z,97706.41
2024-02-28T05:06:40.184Z,97704.78
2024-02-28T05:09:08.456Z,97702.06
2024-02-28T05:11:36.171Z,97711.41
2024-02-28T05:14:03.876Z,97717.59
2024-02-28T05:16:33.535Z,97711.72
2024-02-28T05:19:01.222Z,97716.81
2024-02-28T05:21:29.128Z,97708.78
2024-02-28T05:23:57.010Z,97710.41
2024-02-28T05:26:24.440Z,97711.22
2024-02-28T05:28:52.034Z,97718.44
2024-02-28T05:31:23.898Z,97717.22
2024-02-28T05:33:55.291Z,97720.41
2024-02-28T05:36:23.227Z,97722.47
2024-02-28T05:38:50.974Z,97728.22
2024-02-28T05:41:18.994Z,97720.09
2024-02-28T05:43:47.448Z,97718.97
2024-02-28T05:46:15.619Z,97745.25
2024-02-28T05:48:43.625Z,97738.56
2024-02-28T05:51:13.175Z,97743.56
2024-02-28T05:53:41.501Z,97749.28
2024-02-28T05:56:16.278Z,97758.41
2024-02-28T05:58:45.644Z,97748.38
2024-02-28T06:01:16.752Z,97755.22
2024-02-28T06:03:46.536Z,97758.63
2024-02-28T06:06:15.753Z,97759.78
2024-02-28T06:08:44.622Z,97767.34
2024-02-28T06:11:12.352Z,97764.25
2024-02-28T06:13:41.893Z,97767.91
2024-02-28T06:16:15.850Z,97770.75
2024-02-28T06:18:43.970Z,97778.59
2024-02-28T06:21:11.600Z,97786.13
2024-02-28T06:23:40.734Z,97778.59
2024-02-28T06:26:15.729Z,97785.03
2024-02-28T06:28:44.116Z,97791.47
2024-02-28T06:31:13.778Z,97786.13
2024-02-28T06:33:41.692Z,97795.47
2024-02-28T06:36:09.370Z,97802.53
2024-02-28T06:38:37.121Z,97811.31
2024-02-28T06:41:06.620Z,97809.78
2024-02-28T06:43:35.873Z,97811.78
2024-02-28T06:46:04.027Z,97807.81
2024-02-28T06:48:31.921Z,97822.72
2024-02-28T06:50:59.613Z,97821.25
2024-02-28T06:53:27.570Z,97824.22
2024-02-28T06:55:55.251Z,97833.69
2024-02-28T06:58:26.307Z,97832.06
2024-02-28T07:00:55.373Z,97841.41
2024-02-28T07:03:24.067Z,97831.69
2024-02-28T07:05:51.809Z,97835.66
2024-02-28T07:08:19.374Z,97841.56
2024-02-28T07:10:50.353Z,97844.81
2024-02-28T07:13:18.927Z,97853.25
2024-02-28T07:15:48.327Z,97856.25
2024-02-28T07:18:16.192Z,97858.44
2024-02-28T07:20:43.843Z,97861.16
2024-02-28T07:23:11.489Z,97860.97
2024-02-28T07:25:39.207Z,97864.28
2024-02-28T07:28:06.972Z,97858.97
2024-02-28T07:30:34.667Z,97855.97
2024-02-28T07:33:05.950Z,97865.31
2024-02-28T07:35:33.751Z,97865.72
2024-02-28T07:38:01.334Z,97866.84
2024-02-28T07:40:28.970Z,97870.06
2024-02-28T07:42:56.691Z,97878.25
2024-02-28T07:45:24.422Z,97869.81
2024-02-28T07:47:52.283Z,97866.25
2024-02-28T07:50:21.404Z,97870.38
2024-02-28T07:52:49.013Z,97871.38
2024-02-28T07:55:16.862Z,97866.06
2024-02-28T07:57:44.450Z,97872.22
2024-02-28T08:00:14.649Z,97873.31
2024-02-28T08:02:42.367Z,97872.81
2024-02-28T08:05:09.944Z,97875.22
2024-02-28T08:07:38.981Z,97876.22
2024-02-28T08:10:07.346Z,97880.13
2024-02-28T08:12:35.304Z,97885.56
2024-02-28T08:15:03.062Z,97885.25
2024-02-28T08:17:30.846Z,97884.25
2024-02-28T08:19:58.393Z,97881.25
2024-02-28T08:22:26.307Z,97890.63
2024-02-28T08:24:55.601Z,97889.09
2024-02-28T08:27:24.609Z,97896.16
2024-02-28T08:29:52.731Z,97894.53
2024-02-28T08:32:20.508Z,97900.78
2024-02-28T08:34:48.271Z,97898.88
2024-02-28T08:37:15.989Z,97891.91
2024-02-28T08:39:43.735Z,97895.16
2024-02-28T08:42:13.394Z,97905.78
2024-02-28T08:44:41.183Z,97910.09
2024-02-28T08:47:13.142Z,97907.03
2024-02-28T08:49:40.950Z,97910.84
2024-02-28T08:52:08.615Z,97905.91
2024-02-28T08:54:36.377Z,97919.53
2024-02-28T08:57:04.817Z,97919.38
2024-02-28T08:59:34.338Z,97920.69
2024-02-28T09:02:02.026Z,97916.56
2024-02-28T09:04:30.000Z,97908.00
2024-02-28T09:06:58.599Z,97908.03
2024-02-28T09:09:26.422Z,97904.59
2024-02-28T09:11:54.006Z,97917.91
2024-02-28T09:14:21.681Z,97917.00
2024-02-28T09:16:52.473Z,97926.97
2024-02-28T09:19:20.057Z,97924.25
2024-02-28T09:21:49.193Z,97928.16
2024-02-28T09:24:16.915Z,97923.94
2024-02-28T09:26:44.640Z,97927.78
2024-02-28T09:29:12.255Z,97925.97
2024-02-28T09:31:39.886Z,97926.56
2024-02-28T09:34:11.053Z,97928.47
2024-02-28T09:36:42.321Z,97926.34
2024-02-28T09:39:10.128Z,97930.19
2024-02-28T09:41:37.771Z,97939.03
2024-02-28T09:44:07.900Z,97930.78
2024-02-28T09:46:36.141Z,97937.25
2024-02-28T09:49:04.984Z,97937.94
2024-02-28T09:51:38.541Z,97943.38
2024-02-28T09:54:06.881Z,97918.72
2024-02-28T09:56:35.368Z,97942.34
2024-02-28T09:59:04.229Z,97945.47
2024-02-28T10:01:36.435Z,97950.22
2024-02-28T10:04:04.565Z,97948.13
2024-02-28T10:06:33.862Z,97957.97
2024-02-28T10:09:01.657Z,97956.75
2024-02-28T10:11:29.806Z,97973.66
2024-02-28T10:13:57.425Z,97967.63
2024-02-28T10:16:25.936Z,97967.81
2024-02-28T10:18:54.535Z,97968.81
2024-02-28T10:21:22.231Z,97974.06
2024-02-28T10:23:51.297Z,97975.19
2024-02-28T10:26:18.905Z,97975.38
2024-02-28T10:28:46.841Z,97981.81
2024-02-28T10:31:15.723Z,97980.28
2024-02-28T10:33:43.624Z,97983.53
2024-02-28T10:36:12.745Z,97987.13
2024-02-28T10:38:40.343Z,97984.13
2024-02-28T10:41:13.066Z,97975.97
2024-02-28T10:43:42.041Z,97978.91
2024-02-28T10:46:26.172Z,97978.63
2024-02-28T10:48:58.593Z,97976.97
2024-02-28T10:51:29.323Z,97978.69
2024-02-28T10:54:08.243Z,97992.41
2024-02-28T10:56:37.511Z,97992.19
2024-02-28T10:59:09.639Z,97991.16
2024-02-28T11:01:42.854Z,97986.66
2024-02-28T11:04:12.124Z,97995.81
2024-02-28T11:06:49.759Z,98007.28
2024-02-28T11:09:21.111Z,98002.25
2024-02-28T11:11:50.803Z,97998.94
2024-02-28T11:14:22.557Z,97999.41
2024-02-28T11:17:01.220Z,97992.09
2024-02-28T11:19:34.185Z,98003.78
2024-02-28T11:22:02.998Z,98004.44
2024-02-28T11:24:35.179Z,97996.41
2024-02-28T11:27:05.067Z,98011.28
2024-02-28T11:29:32.862Z,98005.84
2024-02-28T11:32:00.458Z,98001.22
2024-02-28T11:34:28.079Z,97992.56
2024-02-28T11:36:57.563Z,97994.97
2024-02-28T11:39:28.758Z,98001.59
2024-02-28T11:41:56.822Z,98001.66
2024-02-28T11:44:26.132Z,98002.47
2024-02-28T11:46:53.692Z,98000.06
2024-02-28T11:49:21.514Z,98006.25
2024-02-28T11:51:49.592Z,98005.72
2024-02-28T11:54:17.469Z,98005.47
2024-02-28T11:56:45.266Z,98012.38
2024-02-28T11:59:13.115Z,98011.47
2024-02-28T12:01:45.114Z,98017.19
2024-02-28T12:04:14.164Z,97999.72
2024-02-28T12:06:42.179Z,98007.03
2024-02-28T12:09:11.402Z,98003.75
2024-02-28T12:11:40.275Z,98003.38
2024-02-28T12:14:10.542Z,98014.97
2024-02-28T12:16:41.776Z,98006.09
2024-02-28T12:19:11.431Z,98005.47
2024-02-28T12:21:39.707Z,98000.03
2024-02-28T12:24:10.418Z,98001.31
2024-02-28T12:26:38.588Z,98004.25
2024-02-28T12:29:06.384Z,98000.22
2024-02-28T12:31:34.082Z,97992.56
2024-02-28T12:34:01.728Z,97996.09
2024-02-28T12:36:32.179Z,97993.66
2024-02-28T12:39:00.888Z,97991.91
2024-02-28T12:41:29.010Z,97991.38
2024-02-28T12:43:56.669Z,97988.25
2024-02-28T12:46:24.320Z,97992.13
2024-02-28T12:48:51.948Z,97991.38
2024-02-28T12:51:37.169Z,97984.72
2024-02-28T12:54:06.730Z,97991.56
2024-02-28T12:56:34.775Z,97994.09
2024-02-28T12:59:02.951Z,97989.13
2024-02-28T13:01:31.627Z,97990.56
2024-02-28T13:03:59.485Z,97986.34
2024-02-28T13:06:27.147Z,97993.97
2024-02-28T13:08:55.342Z,97986.09
2024-02-28T13:11:25.414Z,97980.69
2024-02-28T13:13:53.597Z,97984.25
2024-02-28T13:16:23.020Z,97983.75
2024-02-28T13:18:50.895Z,97986.63
2024-02-28T13:21:18.704Z,97982.09
2024-02-28T13:23:46.355Z,97984.25
2024-02-28T13:26:18.869Z,97975.19
2024-02-28T13:28:50.589Z,97980.03
2024-02-28T13:31:20.356Z,97977.66
2024-02-28T13:33:49.993Z,97976.97
2024-02-28T13:36:18.022Z,97978.50
2024-02-28T13:38:45.928Z,97976.06
2024-02-28T13:41:14.005Z,97977.91
2024-02-28T13:43:41.609Z,97973.75
2024-02-28T13:46:11.464Z,97971.13
2024-02-28T13:48:39.512Z,97968.94
2024-02-28T13:51:07.409Z,97968.75
2024-02-28T13:53:35.096Z,97978.75
2024-02-28T13:56:02.780Z,97982.16
2024-02-28T13:58:38.884Z,97977.09
2024-02-28T14:01:12.304Z,97978.56
2024-02-28T14:03:42.873Z,97981.81
2024-02-28T14:06:11.166Z,97973.56
2024-02-28T14:08:43.197Z,97977.88
2024-02-28T14:11:11.647Z,97978.69
2024-02-28T14:13:41.013Z,97974.91
2024-02-28T14:16:09.044Z,97978.72
2024-02-28T14:18:39.116Z,97974.59
2024-02-28T14:21:08.273Z,97976.09
2024-02-28T14:23:36.138Z,97965.97
2024-02-28T14:26:04.831Z,97970.03
2024-02-28T14:28:32.501Z,97970.41
2024-02-28T14:31:00.296Z,97968.16
2024-02-28T14:33:27.943Z,97965.31
2024-02-28T14:35:57.288Z,97972.22
2024-02-28T14:38:24.848Z,97973.22
2024-02-28T14:40:53.124Z,97971.31
2024-02-28T14:43:20.774Z,97973.31
2024-02-28T14:45:48.573Z,97975.03
2024-02-28T14:48:16.369Z,97978.31
2024-02-28T14:50:44.491Z,97978.25
2024-02-28T14:53:13.546Z,97977.31
2024-02-28T14:55:41.276Z,97982.72
2024-02-28T14:58:09.013Z,97972.34
2024-02-28T15:00:37.154Z,97964.06
2024-02-28T15:03:05.996Z,97973.31
2024-02-28T15:05:33.708Z,97964.72
2024-02-28T15:08:01.370Z,97966.34
2024-02-28T15:10:30.359Z,97978.81
2024-02-28T15:12:58.046Z,97968.56
2024-02-28T15:15:25.744Z,97975.91
2024-02-28T15:17:53.874Z,97975.38
2024-02-28T15:20:21.569Z,97975.56
2024-02-28T15:22:49.187Z,97975.94
2024-02-28T15:25:16.990Z,97972.81
2024-02-28T15:27:46.037Z,97972.97
2024-02-28T15:30:14.372Z,97966.00
2024-02-28T15:32:43.478Z,97974.00
2024-02-28T15:35:11.612Z,97969.56
2024-02-28T15:37:39.694Z,97968.06
2024-02-28T15:40:08.460Z,97969.84
2024-02-28T15:42:36.756Z,97968.88
2024-02-28T15:45:07.076Z,97974.38
2024-02-28T15:47:35.392Z,97972.31
2024-02-28T15:50:05.788Z,97971.88
2024-02-28T15:52:33.750Z,97968.41
2024-02-28T15:55:01.602Z,97969.81
2024-02-28T15:57:29.299Z,97981.81
2024-02-28T15:59:57.038Z,97983.47
2024-02-28T16:02:26.338Z,97986.78
2024-02-28T16:04:54.018Z,97984.13
2024-02-28T16:07:21.928Z,97987.66
2024-02-28T16:09:50.674Z,97992.34
2024-02-28T16:12:18.502Z,97987.81
2024-02-28T16:14:46.144Z,97983.25
2024-02-28T16:17:16.978Z,97987.34
2024-02-28T16:19:47.487Z,97996.84
2024-02-28T16:22:15.226Z,98002.84
2024-02-28T16:24:43.216Z,97998.28
2024-02-28T16:27:10.901Z,98004.25
2024-02-28T16:29:38.702Z,97996.41
2024-02-28T16:32:06.776Z,97995.38
2024-02-28T16:34:37.101Z,97998.38
2024-02-28T16:37:06.707Z,98005.16
2024-02-28T16:39:34.677Z,98001.97
2024-02-28T16:42:04.805Z,98001.41
2024-02-28T16:44:32.849Z,98003.63
2024-02-28T16:47:00.506Z,98003.09
2024-02-28T16:49:28.019Z,98006.91
2024-02-28T16:51:55.641Z,98011.50
2024-02-28T16:54:25.322Z,98007.25
2024-02-28T16:56:52.916Z,98006.75
2024-02-28T16:59:20.317Z,98007.59
2024-02-28T17:01:49.905Z,98002.75
2024-02-28T17:04:17.815Z,98005.75
2024-02-28T17:06:45.759Z,98002.81
2024-02-28T17:09:14.132Z,98007.41
2024-02-28T17:11:43.205Z,98009.84
2024-02-28T17:14:10.816Z,98011.19
2024-02-28T17:16:38.626Z,98019.84
2024-02-28T17:19:06.629Z,98024.69
2024-02-28T17:21:36.761Z,98024.41
2024-02-28T17:24:06.045Z,98026.56
2024-02-28T17:26:33.705Z,98028.69
2024-02-28T17:29:02.642Z,98024.38
2024-02-28T17:31:30.272Z,98029.47
2024-02-28T17:33:57.728Z,98027.03
2024-02-28T17:36:25.499Z,98027.88
2024-02-28T17:38:53.461Z,98029.25
2024-02-28T17:41:21.124Z,98034.16
2024-02-28T17:43:48.841Z,98035.22
2024-02-28T17:46:17.678Z,98036.34
2024-02-28T17:48:45.348Z,98037.41
2024-02-28T17:51:12.996Z,98034.16
2024-02-28T17:53:40.385Z,98043.63
2024-02-28T17:56:08.073Z,98054.16
2024-02-28T17:58:35.641Z,98038.72
2024-02-28T18:01:06.644Z,98043.03
2024-02-28T18:03:35.870Z,98038.91
2024-02-28T18:06:04.255Z,98038.97
2024-02-28T18:08:33.603Z,98042.78
2024-02-28T18:11:01.484Z,98033.56
2024-02-28T18:13:29.215Z,98045.50
2024-02-28T18:15:56.856Z,98045.50
2024-02-28T18:18:24.271Z,98048.22
2024-02-28T18:20:54.969Z,98041.19
2024-02-28T18:23:30.173Z,98041.97
2024-02-28T18:26:02.213Z,98048.22
2024-02-28T18:28:30.727Z,98035.50
2024-02-28T18:30:58.400Z,98046.03
2024-02-28T18:33:26.169Z,98043.63
2024-02-28T18:35:57.993Z,98048.22
2024-02-28T18:38:29.888Z,98045.78
2024-02-28T18:40:58.922Z,98045.00
2024-02-28T18:43:26.588Z,98049.81
2024-02-28T18:45:54.038Z,98053.06
2024-02-28T18:48:22.171Z,98052.78
2024-02-28T18:50:50.812Z,98049.81
2024-02-28T18:53:19.883Z,98045.78
2024-02-28T18:55:47.436Z,98040.38
2024-02-28T18:58:14.922Z,98044.69
2024-02-28T19:00:47.585Z,98046.06
2024-02-28T19:03:15.376Z,98040.94
2024-02-28T19:05:42.849Z,98045.28
2024-02-28T19:08:10.565Z,98046.59
2024-02-28T19:10:40.684Z,98040.09
2024-02-28T19:13:09.948Z,98036.59
2024-02-28T19:15:37.611Z,98024.94
2024-02-28T19:18:05.846Z,98039.56
2024-02-28T19:20:33.685Z,98040.09
2024-02-28T19:23:01.363Z,98040.66
2024-02-28T19:25:28.799Z,98040.66
2024-02-28T19:27:57.960Z,98039.06
2024-02-28T19:30:25.737Z,98036.34
2024-02-28T19:32:56.477Z,98034.72
2024-02-28T19:35:24.299Z,98031.50
2024-02-28T19:37:51.994Z,98029.59
2024-02-28T19:40:19.620Z,98033.09
2024-02-28T19:42:47.262Z,98038.53
2024-02-28T19:45:17.250Z,98036.91
2024-02-28T19:47:47.119Z,98036.91
2024-02-28T19:50:14.887Z,98032.34
2024-02-28T19:52:42.816Z,98022.63
2024-02-28T19:55:10.494Z,98028.03
2024-02-28T19:57:38.535Z,98012.06
2024-02-28T20:00:11.203Z,98021.22
2024-02-28T20:02:40.635Z,98016.34
2024-02-28T20:05:11.148Z,98017.16
2024-02-28T20:07:38.740Z,98020.97
2024-02-28T20:10:08.287Z,98019.56
2024-02-28T20:12:36.024Z,98024.16
2024-02-28T20:15:04.108Z,98008.25
2024-02-28T20:17:32.165Z,98008.75
2024-02-28T20:20:01.010Z,98000.63
2024-02-28T20:22:28.640Z,98004.44
2024-02-28T20:24:56.038Z,98001.72
2024-02-28T20:27:23.600Z,98000.91
2024-02-28T20:29:51.274Z,97990.91
2024-02-28T20:32:19.424Z,97990.09
2024-02-28T20:34:46.995Z,97988.19
2024-02-28T20:37:15.838Z,98000.63
2024-02-28T20:39:43.597Z,98003.34
2024-02-28T20:42:11.310Z,98003.34
2024-02-28T20:44:38.756Z,98003.06
2024-02-28T20:47:09.544Z,97995.75
2024-02-28T20:49:37.747Z,97988.97
2024-02-28T20:52:06.006Z,97991.66
2024-02-28T20:54:35.494Z,97985.44
2024-02-28T20:57:12.319Z,97978.13
2024-02-28T20:59:44.315Z,97971.91
2024-02-28T21:02:12.457Z,97968.91
2024-02-28T21:04:42.475Z,97977.84
2024-02-28T21:07:10.352Z,97977.31
2024-02-28T21:09:42.674Z,97979.22
2024-02-28T21:12:14.314Z,97981.13
2024-02-28T21:14:42.402Z,97973.28
2024-02-28T21:17:09.993Z,97972.75
2024-02-28T21:19:37.446Z,97964.94
2024-02-28T21:22:05.793Z,97967.38
2024-02-28T21:24:33.605Z,97963.84
2024-02-28T21:27:04.423Z,97956.84
2024-02-28T21:29:33.302Z,97952.00
2024-02-28T21:32:00.846Z,97951.47
2024-02-28T21:34:29.720Z,97954.47
2024-02-28T21:36:57.329Z,97960.16
2024-02-28T21:39:24.746Z,97957.47
2024-02-28T21:41:52.533Z,97962.34
2024-02-28T21:44:21.665Z,97959.63
2024-02-28T21:46:49.859Z,97959.94
2024-02-28T21:49:17.504Z,97963.72
2024-02-28T21:51:45.159Z,97968.63
2024-02-28T21:54:12.797Z,97964.00
2024-02-28T21:56:41.904Z,97967.78
2024-02-28T21:59:09.555Z,97968.06
2024-02-28T22:01:39.127Z,97959.97
2024-02-28T22:04:06.964Z,97958.34
2024-02-28T22:06:34.705Z,97962.16
2024-02-28T22:09:02.705Z,97968.94
2024-02-28T22:11:32.085Z,97963.53
2024-02-28T22:13:59.800Z,97962.72
2024-02-28T22:16:27.538Z,97971.13
2024-02-28T22:18:56.388Z,97971.94
2024-02-28T22:21:24.084Z,97980.31
2024-02-28T22:23:51.459Z,97966.81
2024-02-28T22:26:22.516Z,97966.25
2024-02-28T22:28:50.050Z,97975.47
2024-02-28T22:31:17.534Z,97971.16
2024-02-28T22:33:45.121Z,97971.94
2024-02-28T22:36:14.163Z,97956.81
2024-02-28T22:38:41.752Z,97962.22
2024-02-28T22:41:09.340Z,97963.06
2024-02-28T22:43:36.720Z,97953.84
2024-02-28T22:46:04.671Z,97951.13
2024-02-28T22:48:32.458Z,97950.03
2024-02-28T22:51:00.037Z,97938.41
2024-02-28T22:53:29.031Z,97942.19
2024-02-28T22:55:57.140Z,97937.59
2024-02-28T22:58:24.877Z,97940.31
2024-02-28T23:00:52.595Z,97938.69
2024-02-28T23:03:20.325Z,97939.50
2024-02-28T23:05:47.993Z,97943.28
2024-02-28T23:08:15.402Z,97933.28
2024-02-28T23:10:44.404Z,97931.66
2024-02-28T23:13:12.159Z,97928.16
2024-02-28T23:15:41.643Z,97932.75
2024-02-28T23:18:09.634Z,97926.53
2024-02-28T23:20:37.308Z,97931.94
2024-02-28T23:23:05.028Z,97931.16
2024-02-28T23:25:33.695Z,97928.72
2024-02-28T23:28:03.815Z,97935.75
2024-02-28T23:30:31.989Z,97934.94
2024-02-28T23:33:01.923Z,97933.31
2024-02-28T23:35:29.810Z,97929.00
2024-02-28T23:37:57.487Z,97932.53
2024-02-28T23:40:25.369Z,97928.47
2024-02-28T23:42:53.121Z,97935.50
2024-02-28T23:45:22.337Z,97926.84
2024-02-28T23:47:49.986Z,97921.44
2024-02-28T23:50:18.072Z,97913.34
2024-02-28T23:52:47.299Z,97902.78
2024-02-28T23:55:15.258Z,97909.03
2024-02-28T23:57:43.614Z,97904.72
